Baker City Municipal Airport
KBKE : now visible

Airfield :











YOU CAN JOIN US ON...

 
LOGIN :

Register | Disclaimer

   EN    FR    IT 

 









Legend :    VFR   Marginal VFR   IFR   Intensive IFR   Very Intensive IFR
Visi :
Ceiling :
>= 8 km
>= 3000ft
5 to 8 km
1000 to 3000 ft
1500m to 5 km
500 to 1000 ft
800 to 1500m
200 to 500 ft
< 800m
< 200 ft
Symbols :   Thunderstorms  Fog  Heavy snow  Heavy precipitations  Wind > 20 kt







- Airport Elevation : 3373 ft


KBKE - Baker City Municipal

CURRENT METAR :
  • 200753Z AUTO 00000KT 10SM OVC060 10/08 A2963 RMK AO2 RAE23 SLP021 P0001 T01000078 401720067

EXPIRED METARs :
  • 200653Z AUTO 30005KT 9SM -RA OVC050 10/08 A2963 RMK AO2 SLP024 P0000 T01000083
  • 200553Z AUTO 33009KT 7SM -RA OVC050 10/08 A2963 RMK AO2 SLP025 P0001 60007 T01000078 10150 20100 51007

TAF KBKE
Valid from the 20 at 06:00 until the 21 at 06:00 UTC


200520Z 2006/2106 VRB03KT P6SM -SHRA SCT025 OVC050
FM201600 32012KT P6SM -SHRA BKN040
FM210300 28007KT P6SM VCSH BKN060
KZLC FIR / North America



MET'MAP, your aeronautical weather chart ! - Copyright ORBIFLY December 2007 - Disclaimer

ORBIFLY MET'MAP TEAM :

Programming & Development : Alexandra Zaïnal
Concept & Development : Baudouin d'Aumeries
Co-Development & Prog : Marc-Olivier Méhu
Technical & hardware support : Manuel Goepfert

Contact : metmap@orbifly.com




SOURCES & CREDITS :

   NOAA       Earth
Advisory